Flugplatz Blaubeuren

Für EDMC sind keine METAR/TAF Berichte vorhanden.
Es werden die Flugwettermeldungen vom Flugplatz Laupheim Airport in 23 km Entfernung angezeigt.

Bericht für ETHL

vom 23.02. um 23:20 UTC

Wind 19 kt aus 250°

Sichtweite 10 km oder mehr

aufgebrochene Bewölkung in 2800 ft

Temperatur 12.0°C

Taupunkt 7.0°C

Luftfeuchtigkeit 71%

Luftdruck 1022 hPa

ETHL 232320Z 25019KT 9999 BKN028 12/07 Q1022 BLU
Keine Prognose (TAF) verfügbar.
Impressum